sensor_id;sensor_type;location;lat;lon;timestamp;pressure;altitude;pressure_sealevel;temperature;humidity
46291;BME280;32023;44.444;26.006;2024-03-02T00:01:37;100330.25;;;7.99;nan
46291;BME280;32023;44.444;26.006;2024-03-02T00:04:11;100341.97;;;7.94;nan
46291;BME280;32023;44.444;26.006;2024-03-02T00:06:56;100328.50;;;7.93;nan
46291;BME280;32023;44.444;26.006;2024-03-02T00:09:23;100324.44;;;7.95;nan
46291;BME280;32023;44.444;26.006;2024-03-02T00:11:51;100326.44;;;8.00;nan
46291;BME280;32023;44.444;26.006;2024-03-02T00:14:20;100326.69;;;7.98;nan
46291;BME280;32023;44.444;26.006;2024-03-02T00:16:46;100306.78;;;8.03;nan
46291;BME280;32023;44.444;26.006;2024-03-02T00:19:16;100313.31;;;8.02;nan
46291;BME280;32023;44.444;26.006;2024-03-02T00:21:45;100326.94;;;7.97;nan
46291;BME280;32023;44.444;26.006;2024-03-02T00:24:34;100277.56;;;7.68;nan
46291;BME280;32023;44.444;26.006;2024-03-02T00:27:05;100339.72;;;7.91;nan
46291;BME280;32023;44.444;26.006;2024-03-02T00:29:36;100328.75;;;7.91;nan
46291;BME280;32023;44.444;26.006;2024-03-02T00:32:13;100326.72;;;7.87;nan
46291;BME280;32023;44.444;26.006;2024-03-02T00:34:45;100320.75;;;7.90;nan
46291;BME280;32023;44.444;26.006;2024-03-02T00:37:11;100307.53;;;7.87;nan
46291;BME280;32023;44.444;26.006;2024-03-02T00:42:17;100310.75;;;7.84;nan
46291;BME280;32023;44.444;26.006;2024-03-02T00:44:44;100303.94;;;7.86;nan
46291;BME280;32023;44.444;26.006;2024-03-02T00:47:15;100283.34;;;7.84;nan
46291;BME280;32023;44.444;26.006;2024-03-02T00:49:47;100282.66;;;7.77;nan
46291;BME280;32023;44.444;26.006;2024-03-02T00:52:17;100292.56;;;7.78;nan
46291;BME280;32023;44.444;26.006;2024-03-02T00:54:50;100296.88;;;7.73;nan
46291;BME280;32023;44.444;26.006;2024-03-02T00:57:20;100294.69;;;7.75;nan
46291;BME280;32023;44.444;26.006;2024-03-02T01:00:00;100295.75;;;7.74;nan
46291;BME280;32023;44.444;26.006;2024-03-02T01:02:39;100290.78;;;7.71;nan
46291;BME280;32023;44.444;26.006;2024-03-02T01:05:14;100286.63;;;7.69;nan
46291;BME280;32023;44.444;26.006;2024-03-02T01:12:54;100296.06;;;7.61;nan
46291;BME280;32023;44.444;26.006;2024-03-02T01:15:21;100291.75;;;7.65;nan
46291;BME280;32023;44.444;26.006;2024-03-02T01:17:53;100299.28;;;7.58;nan
46291;BME280;32023;44.444;26.006;2024-03-02T01:20:20;100298.59;;;7.51;nan
46291;BME280;32023;44.444;26.006;2024-03-02T01:22:48;100311.19;;;7.52;nan
46291;BME280;32023;44.444;26.006;2024-03-02T01:25:19;100297.00;;;7.55;nan
46291;BME280;32023;44.444;26.006;2024-03-02T01:27:47;100298.69;;;7.56;nan
46291;BME280;32023;44.444;26.006;2024-03-02T01:30:14;100279.88;;;7.48;nan
46291;BME280;32023;44.444;26.006;2024-03-02T01:32:48;100274.88;;;7.45;nan
46291;BME280;32023;44.444;26.006;2024-03-02T01:35:14;100287.66;;;7.40;nan
46291;BME280;32023;44.444;26.006;2024-03-02T01:37:50;100286.69;;;7.46;nan
46291;BME280;32023;44.444;26.006;2024-03-02T01:40:17;100292.50;;;7.49;nan
46291;BME280;32023;44.444;26.006;2024-03-02T01:42:58;100288.69;;;7.50;nan
46291;BME280;32023;44.444;26.006;2024-03-02T01:45:26;100290.81;;;7.48;nan
46291;BME280;32023;44.444;26.006;2024-03-02T01:47:56;100280.13;;;7.47;nan
46291;BME280;32023;44.444;26.006;2024-03-02T01:50:37;100273.22;;;7.44;nan
46291;BME280;32023;44.444;26.006;2024-03-02T01:53:19;100256.91;;;7.38;nan
46291;BME280;32023;44.444;26.006;2024-03-02T01:55:50;100248.22;;;7.29;nan
46291;BME280;32023;44.444;26.006;2024-03-02T01:58:18;100250.38;;;7.27;nan
46291;BME280;32023;44.444;26.006;2024-03-02T02:00:46;100249.22;;;7.23;nan
46291;BME280;32023;44.444;26.006;2024-03-02T02:03:24;100249.22;;;7.23;nan
46291;BME280;32023;44.444;26.006;2024-03-02T02:05:51;100251.81;;;7.18;nan
46291;BME280;32023;44.444;26.006;2024-03-02T02:08:19;100267.69;;;7.16;nan
46291;BME280;32023;44.444;26.006;2024-03-02T02:10:48;100250.19;;;7.17;nan
46291;BME280;32023;44.444;26.006;2024-03-02T02:13:51;100250.06;;;7.12;nan
46291;BME280;32023;44.444;26.006;2024-03-02T02:16:21;100244.81;;;7.10;nan
46291;BME280;32023;44.444;26.006;2024-03-02T02:18:50;100235.78;;;7.10;nan
46291;BME280;32023;44.444;26.006;2024-03-02T02:21:17;100229.69;;;7.08;nan
46291;BME280;32023;44.444;26.006;2024-03-02T02:24:02;100224.38;;;7.01;nan
46291;BME280;32023;44.444;26.006;2024-03-02T02:29:48;100235.81;;;6.98;nan
46291;BME280;32023;44.444;26.006;2024-03-02T02:32:17;100233.78;;;6.94;nan
46291;BME280;32023;44.444;26.006;2024-03-02T02:34:46;100251.25;;;6.93;nan
46291;BME280;32023;44.444;26.006;2024-03-02T02:37:13;100253.16;;;6.92;nan
46291;BME280;32023;44.444;26.006;2024-03-02T02:39:39;100250.19;;;6.94;nan
46291;BME280;32023;44.444;26.006;2024-03-02T02:42:25;100256.16;;;6.91;nan
46291;BME280;32023;44.444;26.006;2024-03-02T02:44:52;100268.75;;;6.92;nan
46291;BME280;32023;44.444;26.006;2024-03-02T02:47:18;100277.56;;;6.94;nan
46291;BME280;32023;44.444;26.006;2024-03-02T02:49:53;100279.59;;;6.87;nan
46291;BME280;32023;44.444;26.006;2024-03-02T02:52:20;100283.97;;;6.88;nan
46291;BME280;32023;44.444;26.006;2024-03-02T03:01:33;100260.44;;;6.75;nan
46291;BME280;32023;44.444;26.006;2024-03-02T03:07:22;100263.25;;;6.68;nan
46291;BME280;32023;44.444;26.006;2024-03-02T03:13:12;100262.09;;;6.64;nan
46291;BME280;32023;44.444;26.006;2024-03-02T03:15:44;100267.56;;;6.64;nan
46291;BME280;32023;44.444;26.006;2024-03-02T03:18:16;100269.22;;;6.65;nan
46291;BME280;32023;44.444;26.006;2024-03-02T03:21:06;100264.56;;;6.66;nan
46291;BME280;32023;44.444;26.006;2024-03-02T03:23:33;100262.91;;;6.65;nan
46291;BME280;32023;44.444;26.006;2024-03-02T03:25:59;100263.38;;;6.62;nan
46291;BME280;32023;44.444;26.006;2024-03-02T03:28:27;100265.19;;;6.56;nan
46291;BME280;32023;44.444;26.006;2024-03-02T03:30:54;100256.13;;;6.56;nan
46291;BME280;32023;44.444;26.006;2024-03-02T03:33:20;100259.44;;;6.58;nan
46291;BME280;32023;44.444;26.006;2024-03-02T03:35:48;100255.06;;;6.57;nan
46291;BME280;32023;44.444;26.006;2024-03-02T03:38:14;100270.66;;;6.56;nan
46291;BME280;32023;44.444;26.006;2024-03-02T03:40:41;100252.56;;;6.55;nan
46291;BME280;32023;44.444;26.006;2024-03-02T03:43:10;100267.31;;;6.54;nan
46291;BME280;32023;44.444;26.006;2024-03-02T03:45:38;100269.44;;;6.52;nan
46291;BME280;32023;44.444;26.006;2024-03-02T03:48:07;100254.81;;;6.47;nan
46291;BME280;32023;44.444;26.006;2024-03-02T03:50:37;100262.91;;;6.42;nan
46291;BME280;32023;44.444;26.006;2024-03-02T03:53:07;100255.41;;;6.37;nan
46291;BME280;32023;44.444;26.006;2024-03-02T03:55:36;100265.97;;;6.34;nan
46291;BME280;32023;44.444;26.006;2024-03-02T03:58:02;100265.13;;;6.33;nan
46291;BME280;32023;44.444;26.006;2024-03-02T04:00:29;100257.84;;;6.27;nan
46291;BME280;32023;44.444;26.006;2024-03-02T04:03:02;100243.44;;;6.20;nan
46291;BME280;32023;44.444;26.006;2024-03-02T04:05:32;100246.66;;;6.17;nan
46291;BME280;32023;44.444;26.006;2024-03-02T04:07:59;100243.44;;;6.20;nan
46291;BME280;32023;44.444;26.006;2024-03-02T04:10:31;100240.72;;;6.20;nan
46291;BME280;32023;44.444;26.006;2024-03-02T04:12:58;100252.28;;;6.22;nan
46291;BME280;32023;44.444;26.006;2024-03-02T04:15:24;100248.91;;;6.20;nan
46291;BME280;32023;44.444;26.006;2024-03-02T04:17:56;100242.63;;;6.19;nan
46291;BME280;32023;44.444;26.006;2024-03-02T04:20:23;100250.22;;;6.17;nan
46291;BME280;32023;44.444;26.006;2024-03-02T04:22:51;100247.72;;;6.16;nan
46291;BME280;32023;44.444;26.006;2024-03-02T04:25:17;100253.81;;;6.18;nan
46291;BME280;32023;44.444;26.006;2024-03-02T04:27:47;100254.38;;;6.20;nan
46291;BME280;32023;44.444;26.006;2024-03-02T04:30:16;100255.59;;;6.24;nan
46291;BME280;32023;44.444;26.006;2024-03-02T04:32:42;100257.38;;;6.18;nan
46291;BME280;32023;44.444;26.006;2024-03-02T04:35:14;100251.91;;;6.18;nan
46291;BME280;32023;44.444;26.006;2024-03-02T04:37:41;100261.38;;;6.16;nan
46291;BME280;32023;44.444;26.006;2024-03-02T04:40:08;100243.94;;;6.17;nan
46291;BME280;32023;44.444;26.006;2024-03-02T04:42:35;100243.94;;;6.17;nan
46291;BME280;32023;44.444;26.006;2024-03-02T04:45:02;100244.75;;;6.17;nan
46291;BME280;32023;44.444;26.006;2024-03-02T04:47:28;100235.25;;;6.20;nan
46291;BME280;32023;44.444;26.006;2024-03-02T04:49:55;100242.25;;;6.16;nan
46291;BME280;32023;44.444;26.006;2024-03-02T04:52:22;100238.47;;;6.17;nan
46291;BME280;32023;44.444;26.006;2024-03-02T04:54:51;100244.28;;;6.20;nan
46291;BME280;32023;44.444;26.006;2024-03-02T04:57:44;100251.66;;;6.20;nan
46291;BME280;32023;44.444;26.006;2024-03-02T05:00:12;100257.00;;;6.15;nan
46291;BME280;32023;44.444;26.006;2024-03-02T05:02:39;100254.28;;;6.15;nan
46291;BME280;32023;44.444;26.006;2024-03-02T05:05:06;100253.28;;;6.09;nan
46291;BME280;32023;44.444;26.006;2024-03-02T05:07:32;100245.94;;;6.10;nan
46291;BME280;32023;44.444;26.006;2024-03-02T05:10:02;100256.28;;;6.08;nan
46291;BME280;32023;44.444;26.006;2024-03-02T05:12:28;100256.88;;;6.10;nan
46291;BME280;32023;44.444;26.006;2024-03-02T05:15:21;100265.78;;;6.17;nan
46291;BME280;32023;44.444;26.006;2024-03-02T05:17:48;100271.63;;;6.20;nan
46291;BME280;32023;44.444;26.006;2024-03-02T05:20:14;100263.69;;;6.19;nan
46291;BME280;32023;44.444;26.006;2024-03-02T05:22:44;100279.00;;;6.20;nan
46291;BME280;32023;44.444;26.006;2024-03-02T05:25:13;100282.09;;;6.23;nan
46291;BME280;32023;44.444;26.006;2024-03-02T05:27:47;100291.13;;;6.24;nan
46291;BME280;32023;44.444;26.006;2024-03-02T05:30:14;100292.47;;;6.33;nan
46291;BME280;32023;44.444;26.006;2024-03-02T05:32:41;100293.22;;;6.40;nan
46291;BME280;32023;44.444;26.006;2024-03-02T05:35:09;100298.56;;;6.47;nan
46291;BME280;32023;44.444;26.006;2024-03-02T05:37:41;100294.06;;;6.52;nan
46291;BME280;32023;44.444;26.006;2024-03-02T05:40:09;100294.19;;;6.57;nan
46291;BME280;32023;44.444;26.006;2024-03-02T05:42:37;100303.47;;;6.56;nan
46291;BME280;32023;44.444;26.006;2024-03-02T05:45:04;100309.31;;;6.60;nan
46291;BME280;32023;44.444;26.006;2024-03-02T05:47:31;100307.63;;;6.59;nan
46291;BME280;32023;44.444;26.006;2024-03-02T05:49:59;100299.56;;;6.64;nan
46291;BME280;32023;44.444;26.006;2024-03-02T05:52:25;100301.56;;;6.57;nan
46291;BME280;32023;44.444;26.006;2024-03-02T05:54:52;100295.97;;;6.52;nan
46291;BME280;32023;44.444;26.006;2024-03-02T05:57:28;100301.31;;;6.58;nan
46291;BME280;32023;44.444;26.006;2024-03-02T06:00:28;100299.56;;;6.64;nan
46291;BME280;32023;44.444;26.006;2024-03-02T06:03:03;100291.09;;;6.65;nan
46291;BME280;32023;44.444;26.006;2024-03-02T06:05:29;100249.81;;;6.44;nan
46291;BME280;32023;44.444;26.006;2024-03-02T06:07:59;100287.53;;;6.76;nan
46291;BME280;32023;44.444;26.006;2024-03-02T06:10:25;100273.84;;;6.76;nan
46291;BME280;32023;44.444;26.006;2024-03-02T06:12:56;100287.91;;;6.80;nan
46291;BME280;32023;44.444;26.006;2024-03-02T06:15:25;100289.22;;;6.77;nan
46291;BME280;32023;44.444;26.006;2024-03-02T06:17:54;100292.91;;;6.83;nan
46291;BME280;32023;44.444;26.006;2024-03-02T06:20:20;100280.06;;;6.95;nan
46291;BME280;32023;44.444;26.006;2024-03-02T06:22:47;100274.69;;;7.00;nan
46291;BME280;32023;44.444;26.006;2024-03-02T06:25:16;100273.88;;;7.00;nan
46291;BME280;32023;44.444;26.006;2024-03-02T06:27:42;100272.81;;;7.01;nan
46291;BME280;32023;44.444;26.006;2024-03-02T06:30:10;100264.09;;;7.04;nan
46291;BME280;32023;44.444;26.006;2024-03-02T06:32:36;100263.75;;;7.12;nan
46291;BME280;32023;44.444;26.006;2024-03-02T06:35:09;100264.31;;;7.14;nan
46291;BME280;32023;44.444;26.006;2024-03-02T06:40:13;100268.50;;;7.28;nan
46291;BME280;32023;44.444;26.006;2024-03-02T06:42:40;100272.16;;;7.34;nan
46291;BME280;32023;44.444;26.006;2024-03-02T06:45:09;100263.22;;;7.38;nan
46291;BME280;32023;44.444;26.006;2024-03-02T06:47:36;100263.91;;;7.45;nan
46291;BME280;32023;44.444;26.006;2024-03-02T06:50:05;100263.78;;;7.52;nan
46291;BME280;32023;44.444;26.006;2024-03-02T06:55:10;100281.28;;;7.62;nan
46291;BME280;32023;44.444;26.006;2024-03-02T06:57:38;100269.22;;;7.63;nan
46291;BME280;32023;44.444;26.006;2024-03-02T07:00:05;100269.22;;;7.63;nan
46291;BME280;32023;44.444;26.006;2024-03-02T07:02:37;100267.28;;;7.75;nan
46291;BME280;32023;44.444;26.006;2024-03-02T07:05:04;100271.66;;;7.88;nan
46291;BME280;32023;44.444;26.006;2024-03-02T07:07:34;100257.31;;;7.98;nan
46291;BME280;32023;44.444;26.006;2024-03-02T07:13:50;100281.31;;;8.19;nan
46291;BME280;32023;44.444;26.006;2024-03-02T07:16:18;100275.19;;;8.29;nan
46291;BME280;32023;44.444;26.006;2024-03-02T07:24:47;100260.50;;;8.51;nan
46291;BME280;32023;44.444;26.006;2024-03-02T07:27:17;100259.25;;;8.59;nan
46291;BME280;32023;44.444;26.006;2024-03-02T07:29:44;100255.91;;;8.74;nan
46291;BME280;32023;44.444;26.006;2024-03-02T07:32:37;100261.72;;;8.94;nan
46291;BME280;32023;44.444;26.006;2024-03-02T07:35:03;100266.75;;;9.18;nan
46291;BME280;32023;44.444;26.006;2024-03-02T07:37:33;100258.09;;;9.48;nan
46291;BME280;32023;44.444;26.006;2024-03-02T07:39:59;100269.75;;;9.77;nan
46291;BME280;32023;44.444;26.006;2024-03-02T07:42:26;100262.69;;;9.86;nan
46291;BME280;32023;44.444;26.006;2024-03-02T07:44:52;100276.75;;;9.90;nan
46291;BME280;32023;44.444;26.006;2024-03-02T07:47:19;100265.75;;;9.90;nan
46291;BME280;32023;44.444;26.006;2024-03-02T07:49:47;100252.66;;;9.75;nan
46291;BME280;32023;44.444;26.006;2024-03-02T07:52:13;100268.38;;;9.80;nan
46291;BME280;32023;44.444;26.006;2024-03-02T07:58:03;100270.09;;;9.86;nan
46291;BME280;32023;44.444;26.006;2024-03-02T08:07:25;100267.69;;;9.67;nan
46291;BME280;32023;44.444;26.006;2024-03-02T08:10:17;100277.38;;;9.70;nan
46291;BME280;32023;44.444;26.006;2024-03-02T08:12:45;100278.63;;;9.62;nan
46291;BME280;32023;44.444;26.006;2024-03-02T08:15:14;100276.06;;;9.56;nan
46291;BME280;32023;44.444;26.006;2024-03-02T08:17:43;100272.53;;;9.60;nan
46291;BME280;32023;44.444;26.006;2024-03-02T08:20:17;100283.72;;;9.76;nan
46291;BME280;32023;44.444;26.006;2024-03-02T08:22:51;100276.25;;;9.93;nan
46291;BME280;32023;44.444;26.006;2024-03-02T08:25:25;100278.13;;;10.14;nan
46291;BME280;32023;44.444;26.006;2024-03-02T08:28:00;100263.25;;;10.37;nan
46291;BME280;32023;44.444;26.006;2024-03-02T08:40:49;100247.72;;;10.89;nan
46291;BME280;32023;44.444;26.006;2024-03-02T08:50:26;100242.81;;;10.96;nan
46291;BME280;32023;44.444;26.006;2024-03-02T08:53:22;100245.94;;;11.10;nan
46291;BME280;32023;44.444;26.006;2024-03-02T08:56:14;100246.25;;;11.14;nan
46291;BME280;32023;44.444;26.006;2024-03-02T08:58:57;100254.72;;;11.02;nan
46291;BME280;32023;44.444;26.006;2024-03-02T09:01:47;100249.63;;;10.84;nan
46291;BME280;32023;44.444;26.006;2024-03-02T09:16:22;100240.94;;;11.02;nan
46291;BME280;32023;44.444;26.006;2024-03-02T09:22:43;100232.63;;;11.44;nan
46291;BME280;32023;44.444;26.006;2024-03-02T09:25:29;100232.41;;;11.60;nan
46291;BME280;32023;44.444;26.006;2024-03-02T09:28:23;100227.97;;;11.54;nan
46291;BME280;32023;44.444;26.006;2024-03-02T09:30:54;100235.47;;;11.69;nan
46291;BME280;32023;44.444;26.006;2024-03-02T09:39:44;100228.69;;;11.92;nan
46291;BME280;32023;44.444;26.006;2024-03-02T09:42:59;100234.22;;;12.02;nan
46291;BME280;32023;44.444;26.006;2024-03-02T09:45:37;100233.41;;;11.96;nan
46291;BME280;32023;44.444;26.006;2024-03-02T09:51:58;100222.34;;;12.01;nan
46291;BME280;32023;44.444;26.006;2024-03-02T10:04:28;100193.97;;;12.67;nan
46291;BME280;32023;44.444;26.006;2024-03-02T10:13:44;100181.00;;;12.57;nan
46291;BME280;32023;44.444;26.006;2024-03-02T10:26:48;100174.00;;;13.00;nan
46291;BME280;32023;44.444;26.006;2024-03-02T10:33:03;100180.03;;;13.32;nan
46291;BME280;32023;44.444;26.006;2024-03-02T10:35:53;100170.00;;;13.46;nan
46291;BME280;32023;44.444;26.006;2024-03-02T10:38:25;100171.69;;;13.42;nan
46291;BME280;32023;44.444;26.006;2024-03-02T10:40:53;100174.91;;;13.60;nan
46291;BME280;32023;44.444;26.006;2024-03-02T10:43:36;100158.84;;;13.67;nan
46291;BME280;32023;44.444;26.006;2024-03-02T10:46:13;100186.91;;;13.94;nan
46291;BME280;32023;44.444;26.006;2024-03-02T10:48:46;100179.16;;;13.96;nan
46291;BME280;32023;44.444;26.006;2024-03-02T10:51:18;100183.13;;;13.80;nan
46291;BME280;32023;44.444;26.006;2024-03-02T10:53:49;100180.59;;;13.83;nan
46291;BME280;32023;44.444;26.006;2024-03-02T10:56:39;100170.13;;;14.19;nan
46291;BME280;32023;44.444;26.006;2024-03-02T11:03:20;100171.66;;;14.40;nan
46291;BME280;32023;44.444;26.006;2024-03-02T11:05:50;100178.59;;;14.38;nan
46291;BME280;32023;44.444;26.006;2024-03-02T11:08:23;100178.13;;;14.60;nan
46291;BME280;32023;44.444;26.006;2024-03-02T11:11:22;100166.28;;;14.83;nan
46291;BME280;32023;44.444;26.006;2024-03-02T11:16:57;100165.78;;;15.28;nan
46291;BME280;32023;44.444;26.006;2024-03-02T11:19:30;100166.09;;;15.46;nan
46291;BME280;32023;44.444;26.006;2024-03-02T11:22:08;100172.50;;;15.70;nan
46291;BME280;32023;44.444;26.006;2024-03-02T11:25:28;100157.25;;;15.43;nan
46291;BME280;32023;44.444;26.006;2024-03-02T11:28:04;100163.22;;;15.32;nan
46291;BME280;32023;44.444;26.006;2024-03-02T11:30:51;100171.84;;;15.07;nan
46291;BME280;32023;44.444;26.006;2024-03-02T11:33:49;100176.03;;;15.04;nan
46291;BME280;32023;44.444;26.006;2024-03-02T11:36:20;100176.50;;;15.11;nan
46291;BME280;32023;44.444;26.006;2024-03-02T11:38:52;100176.56;;;14.77;nan
46291;BME280;32023;44.444;26.006;2024-03-02T11:41:32;100175.97;;;14.52;nan
46291;BME280;32023;44.444;26.006;2024-03-02T11:44:20;100184.91;;;14.43;nan
46291;BME280;32023;44.444;26.006;2024-03-02T11:47:06;100189.19;;;14.65;nan
46291;BME280;32023;44.444;26.006;2024-03-02T11:49:45;100170.19;;;14.77;nan
46291;BME280;32023;44.444;26.006;2024-03-02T11:52:15;100178.28;;;15.02;nan
46291;BME280;32023;44.444;26.006;2024-03-02T11:55:38;100173.38;;;15.65;nan
46291;BME280;32023;44.444;26.006;2024-03-02T12:08:27;100161.63;;;15.50;nan
46291;BME280;32023;44.444;26.006;2024-03-02T12:11:16;100158.66;;;15.65;nan
46291;BME280;32023;44.444;26.006;2024-03-02T12:19:57;100163.94;;;15.85;nan
46291;BME280;32023;44.444;26.006;2024-03-02T12:22:48;100152.78;;;16.09;nan
46291;BME280;32023;44.444;26.006;2024-03-02T12:25:25;100139.53;;;16.19;nan
46291;BME280;32023;44.444;26.006;2024-03-02T12:28:18;100149.78;;;16.37;nan
46291;BME280;32023;44.444;26.006;2024-03-02T12:31:16;100156.88;;;15.74;nan
46291;BME280;32023;44.444;26.006;2024-03-02T12:34:25;100161.50;;;15.60;nan
46291;BME280;32023;44.444;26.006;2024-03-02T12:37:21;100158.50;;;15.75;nan
46291;BME280;32023;44.444;26.006;2024-03-02T12:40:12;100153.56;;;15.72;nan
46291;BME280;32023;44.444;26.006;2024-03-02T12:43:00;100147.75;;;15.50;nan
46291;BME280;32023;44.444;26.006;2024-03-02T12:45:35;100154.41;;;15.49;nan
46291;BME280;32023;44.444;26.006;2024-03-02T12:48:12;100155.25;;;15.49;nan
46291;BME280;32023;44.444;26.006;2024-03-02T12:50:55;100154.00;;;15.60;nan
46291;BME280;32023;44.444;26.006;2024-03-02T12:53:24;100145.94;;;15.40;nan
46291;BME280;32023;44.444;26.006;2024-03-02T12:55:54;100150.00;;;15.00;nan
46291;BME280;32023;44.444;26.006;2024-03-02T12:58:38;100146.63;;;15.03;nan
46291;BME280;32023;44.444;26.006;2024-03-02T13:01:29;100149.59;;;15.12;nan
46291;BME280;32023;44.444;26.006;2024-03-02T13:03:56;100144.91;;;15.07;nan
46291;BME280;32023;44.444;26.006;2024-03-02T13:07:05;100140.25;;;15.26;nan
46291;BME280;32023;44.444;26.006;2024-03-02T13:09:46;100139.84;;;15.38;nan
46291;BME280;32023;44.444;26.006;2024-03-02T13:15:57;100133.78;;;15.12;nan
46291;BME280;32023;44.444;26.006;2024-03-02T13:18:44;100104.94;;;14.89;nan
46291;BME280;32023;44.444;26.006;2024-03-02T13:21:16;100127.94;;;15.14;nan
46291;BME280;32023;44.444;26.006;2024-03-02T13:23:58;100140.91;;;15.18;nan
46291;BME280;32023;44.444;26.006;2024-03-02T13:26:35;100139.97;;;15.28;nan
46291;BME280;32023;44.444;26.006;2024-03-02T13:29:12;100147.41;;;15.32;nan
46291;BME280;32023;44.444;26.006;2024-03-02T13:31:56;100154.66;;;15.05;nan
46291;BME280;32023;44.444;26.006;2024-03-02T13:34:24;100148.44;;;14.89;nan
46291;BME280;32023;44.444;26.006;2024-03-02T13:36:58;100146.28;;;14.86;nan
46291;BME280;32023;44.444;26.006;2024-03-02T13:39:33;100144.44;;;15.00;nan
46291;BME280;32023;44.444;26.006;2024-03-02T13:42:14;100141.06;;;15.03;nan
46291;BME280;32023;44.444;26.006;2024-03-02T13:44:57;100146.34;;;15.05;nan
46291;BME280;32023;44.444;26.006;2024-03-02T13:47:29;100142.97;;;15.08;nan
46291;BME280;32023;44.444;26.006;2024-03-02T13:49:59;100145.97;;;15.11;nan
46291;BME280;32023;44.444;26.006;2024-03-02T13:53:04;100136.09;;;15.05;nan
46291;BME280;32023;44.444;26.006;2024-03-02T13:55:46;100142.38;;;15.11;nan
46291;BME280;32023;44.444;26.006;2024-03-02T13:58:52;100145.94;;;15.16;nan
46291;BME280;32023;44.444;26.006;2024-03-02T14:01:31;100143.44;;;15.15;nan
46291;BME280;32023;44.444;26.006;2024-03-02T14:03:59;100138.91;;;15.24;nan
46291;BME280;32023;44.444;26.006;2024-03-02T14:06:28;100138.13;;;15.42;nan
46291;BME280;32023;44.444;26.006;2024-03-02T14:09:16;100141.13;;;15.46;nan
46291;BME280;32023;44.444;26.006;2024-03-02T14:11:45;100135.41;;;15.61;nan
46291;BME280;32023;44.444;26.006;2024-03-02T14:14:23;100132.19;;;15.49;nan
46291;BME280;32023;44.444;26.006;2024-03-02T14:16:54;100126.94;;;15.52;nan
46291;BME280;32023;44.444;26.006;2024-03-02T14:19:27;100128.91;;;15.47;nan
46291;BME280;32023;44.444;26.006;2024-03-02T14:22:14;100149.00;;;15.38;nan
46291;BME280;32023;44.444;26.006;2024-03-02T14:25:24;100128.00;;;15.32;nan
46291;BME280;32023;44.444;26.006;2024-03-02T14:28:18;100121.19;;;15.43;nan
46291;BME280;32023;44.444;26.006;2024-03-02T14:30:50;100126.03;;;15.57;nan
46291;BME280;32023;44.444;26.006;2024-03-02T14:33:28;100128.06;;;15.46;nan
46291;BME280;32023;44.444;26.006;2024-03-02T14:36:07;100119.13;;;15.30;nan
46291;BME280;32023;44.444;26.006;2024-03-02T14:39:00;100127.63;;;15.15;nan
46291;BME280;32023;44.444;26.006;2024-03-02T14:45:03;100126.19;;;14.99;nan
46291;BME280;32023;44.444;26.006;2024-03-02T14:48:00;100130.91;;;14.70;nan
46291;BME280;32023;44.444;26.006;2024-03-02T14:50:43;100152.72;;;14.53;nan
46291;BME280;32023;44.444;26.006;2024-03-02T14:53:18;100136.72;;;14.44;nan
46291;BME280;32023;44.444;26.006;2024-03-02T14:55:56;100153.31;;;14.44;nan
46291;BME280;32023;44.444;26.006;2024-03-02T14:58:34;100159.38;;;14.46;nan
46291;BME280;32023;44.444;26.006;2024-03-02T15:02:08;100154.94;;;14.51;nan
46291;BME280;32023;44.444;26.006;2024-03-02T15:11:44;100155.22;;;14.10;nan
46291;BME280;32023;44.444;26.006;2024-03-02T15:17:47;100167.75;;;13.59;nan
46291;BME280;32023;44.444;26.006;2024-03-02T15:20:13;100174.97;;;13.44;nan
46291;BME280;32023;44.444;26.006;2024-03-02T15:22:40;100171.41;;;13.39;nan
46291;BME280;32023;44.444;26.006;2024-03-02T15:25:07;100173.63;;;13.37;nan
46291;BME280;32023;44.444;26.006;2024-03-02T15:27:52;100181.66;;;13.33;nan
46291;BME280;32023;44.444;26.006;2024-03-02T15:30:52;100182.53;;;13.29;nan
46291;BME280;32023;44.444;26.006;2024-03-02T15:33:20;100192.25;;;13.21;nan
46291;BME280;32023;44.444;26.006;2024-03-02T15:36:02;100180.06;;;13.07;nan
46291;BME280;32023;44.444;26.006;2024-03-02T15:38:29;100188.66;;;12.95;nan
46291;BME280;32023;44.444;26.006;2024-03-02T15:40:58;100188.69;;;12.80;nan
46291;BME280;32023;44.444;26.006;2024-03-02T15:43:33;100196.72;;;12.72;nan
46291;BME280;32023;44.444;26.006;2024-03-02T15:46:07;100194.22;;;12.65;nan
46291;BME280;32023;44.444;26.006;2024-03-02T15:48:40;100202.53;;;12.55;nan
46291;BME280;32023;44.444;26.006;2024-03-02T15:51:29;100173.25;;;12.24;nan
46291;BME280;32023;44.444;26.006;2024-03-02T15:57:35;100209.41;;;11.97;nan
46291;BME280;32023;44.444;26.006;2024-03-02T16:00:32;100216.03;;;12.06;nan
46291;BME280;32023;44.444;26.006;2024-03-02T16:03:16;100219.59;;;11.96;nan
46291;BME280;32023;44.444;26.006;2024-03-02T16:06:00;100217.38;;;11.88;nan
46291;BME280;32023;44.444;26.006;2024-03-02T16:08:46;100230.84;;;11.80;nan
46291;BME280;32023;44.444;26.006;2024-03-02T16:11:42;100228.63;;;11.77;nan
46291;BME280;32023;44.444;26.006;2024-03-02T16:14:14;100229.19;;;11.74;nan
46291;BME280;32023;44.444;26.006;2024-03-02T16:16:51;100223.63;;;11.69;nan
46291;BME280;32023;44.444;26.006;2024-03-02T16:19:26;100228.56;;;11.62;nan
46291;BME280;32023;44.444;26.006;2024-03-02T16:21:56;100226.88;;;11.60;nan
46291;BME280;32023;44.444;26.006;2024-03-02T16:27:29;100226.81;;;11.45;nan
46291;BME280;32023;44.444;26.006;2024-03-02T16:30:13;100227.38;;;11.42;nan
46291;BME280;32023;44.444;26.006;2024-03-02T16:32:57;100235.06;;;11.35;nan
46291;BME280;32023;44.444;26.006;2024-03-02T16:35:36;100242.75;;;11.33;nan
46291;BME280;32023;44.444;26.006;2024-03-02T16:38:15;100229.78;;;11.34;nan
46291;BME280;32023;44.444;26.006;2024-03-02T16:40:51;100241.94;;;11.33;nan